createdAt,value
2023-12-08T00:26:31.834Z,37
2023-12-08T00:54:59.399Z,33
2023-12-08T01:23:38.418Z,29
2023-12-08T01:52:17.230Z,29
2023-12-08T02:20:43.651Z,26
2023-12-08T02:49:21.036Z,29
2023-12-08T03:17:47.318Z,26
2023-12-08T03:46:18.898Z,26
2023-12-08T04:15:04.624Z,21
2023-12-08T04:43:38.747Z,28
2023-12-08T05:12:12.982Z,32
2023-12-08T05:40:47.715Z,29
2023-12-08T06:09:15.016Z,29
2023-12-08T06:37:36.534Z,51
2023-12-08T07:06:04.328Z,32
2023-12-08T07:34:27.533Z,36
2023-12-08T08:03:01.215Z,39
2023-12-08T08:31:17.593Z,52
2023-12-08T08:59:52.874Z,55
2023-12-08T09:28:31.625Z,48
2023-12-08T09:57:00.977Z,52
2023-12-08T10:25:24.977Z,39
2023-12-08T10:53:46.822Z,39
2023-12-08T11:22:21.916Z,32
2023-12-08T11:50:38.405Z,32
2023-12-08T12:19:04.191Z,25
2023-12-08T12:47:29.522Z,20
2023-12-08T13:15:49.866Z,15
2023-12-08T13:44:13.326Z,20
2023-12-08T14:12:38.802Z,12
2023-12-08T14:40:46.780Z,15
2023-12-08T15:09:08.443Z,21
2023-12-08T15:37:45.625Z,20
2023-12-08T16:06:05.056Z,28
2023-12-08T16:34:25.750Z,27
2023-12-08T17:02:51.163Z,26
2023-12-08T17:31:25.961Z,28
2023-12-08T17:59:57.733Z,25
2023-12-08T18:28:15.349Z,29
2023-12-08T18:56:33.810Z,66
2023-12-08T19:25:04.862Z,43
2023-12-08T19:53:30.098Z,35
2023-12-08T20:21:50.418Z,29
2023-12-08T20:50:07.517Z,32
2023-12-08T21:18:34.616Z,26
2023-12-08T21:47:00.349Z,35
2023-12-08T22:15:22.313Z,32
2023-12-08T22:43:51.803Z,32
2023-12-08T23:12:22.000Z,26
2023-12-08T23:40:49.215Z,24
